sensor_id;sensor_type;location;lat;lon;timestamp;P1;durP1;ratioP1;P2;durP2;ratioP2
21424;SDS011;10873;51.132;16.848;2024-01-30T00:00:12;89.53;;;45.43;;
21424;SDS011;10873;51.132;16.848;2024-01-30T00:02:59;88.87;;;47.33;;
21424;SDS011;10873;51.132;16.848;2024-01-30T00:05:31;84.43;;;46.53;;
21424;SDS011;10873;51.132;16.848;2024-01-30T00:07:58;84.63;;;45.47;;
21424;SDS011;10873;51.132;16.848;2024-01-30T00:10:24;79.87;;;45.60;;
21424;SDS011;10873;51.132;16.848;2024-01-30T00:12:52;81.97;;;45.30;;
21424;SDS011;10873;51.132;16.848;2024-01-30T00:15:19;78.53;;;44.10;;
21424;SDS011;10873;51.132;16.848;2024-01-30T00:17:45;80.13;;;42.47;;
21424;SDS011;10873;51.132;16.848;2024-01-30T00:20:11;76.63;;;42.50;;
21424;SDS011;10873;51.132;16.848;2024-01-30T00:22:41;75.27;;;40.23;;
21424;SDS011;10873;51.132;16.848;2024-01-30T00:25:07;71.40;;;39.73;;
21424;SDS011;10873;51.132;16.848;2024-01-30T00:27:33;67.32;;;37.95;;
21424;SDS011;10873;51.132;16.848;2024-01-30T00:30:06;67.70;;;37.57;;
21424;SDS011;10873;51.132;16.848;2024-01-30T00:32:33;62.17;;;36.37;;
21424;SDS011;10873;51.132;16.848;2024-01-30T00:34:59;63.87;;;36.37;;
21424;SDS011;10873;51.132;16.848;2024-01-30T00:37:27;67.57;;;36.50;;
21424;SDS011;10873;51.132;16.848;2024-01-30T00:39:54;70.50;;;37.83;;
21424;SDS011;10873;51.132;16.848;2024-01-30T00:42:20;65.33;;;36.20;;
21424;SDS011;10873;51.132;16.848;2024-01-30T00:44:47;70.13;;;36.57;;
21424;SDS011;10873;51.132;16.848;2024-01-30T00:47:14;66.40;;;37.27;;
21424;SDS011;10873;51.132;16.848;2024-01-30T00:49:41;71.73;;;38.00;;
21424;SDS011;10873;51.132;16.848;2024-01-30T00:52:07;86.05;;;42.60;;
21424;SDS011;10873;51.132;16.848;2024-01-30T00:54:33;95.37;;;48.43;;
21424;SDS011;10873;51.132;16.848;2024-01-30T00:56:59;102.67;;;51.40;;
21424;SDS011;10873;51.132;16.848;2024-01-30T00:59:28;110.20;;;55.47;;
21424;SDS011;10873;51.132;16.848;2024-01-30T01:01:54;107.07;;;52.78;;
21424;SDS011;10873;51.132;16.848;2024-01-30T01:04:26;106.07;;;52.88;;
21424;SDS011;10873;51.132;16.848;2024-01-30T01:06:52;103.40;;;52.00;;
21424;SDS011;10873;51.132;16.848;2024-01-30T01:09:18;93.70;;;47.87;;
21424;SDS011;10873;51.132;16.848;2024-01-30T01:11:44;87.55;;;45.20;;
21424;SDS011;10873;51.132;16.848;2024-01-30T01:14:10;88.77;;;46.47;;
21424;SDS011;10873;51.132;16.848;2024-01-30T01:16:36;83.17;;;43.17;;
21424;SDS011;10873;51.132;16.848;2024-01-30T01:19:03;80.63;;;44.00;;
21424;SDS011;10873;51.132;16.848;2024-01-30T01:21:31;76.33;;;41.77;;
21424;SDS011;10873;51.132;16.848;2024-01-30T01:23:58;70.03;;;39.00;;
21424;SDS011;10873;51.132;16.848;2024-01-30T01:26:24;68.63;;;37.17;;
21424;SDS011;10873;51.132;16.848;2024-01-30T01:28:50;62.30;;;35.53;;
21424;SDS011;10873;51.132;16.848;2024-01-30T01:31:16;64.13;;;34.00;;
21424;SDS011;10873;51.132;16.848;2024-01-30T01:33:43;59.30;;;33.53;;
21424;SDS011;10873;51.132;16.848;2024-01-30T01:36:09;55.00;;;31.63;;
21424;SDS011;10873;51.132;16.848;2024-01-30T01:38:38;54.53;;;30.30;;
21424;SDS011;10873;51.132;16.848;2024-01-30T01:41:04;52.10;;;28.67;;
21424;SDS011;10873;51.132;16.848;2024-01-30T01:43:32;51.73;;;29.03;;
21424;SDS011;10873;51.132;16.848;2024-01-30T01:45:58;47.93;;;28.87;;
21424;SDS011;10873;51.132;16.848;2024-01-30T01:48:25;50.30;;;29.10;;
21424;SDS011;10873;51.132;16.848;2024-01-30T01:50:51;44.73;;;26.43;;
21424;SDS011;10873;51.132;16.848;2024-01-30T01:53:18;44.40;;;25.80;;
21424;SDS011;10873;51.132;16.848;2024-01-30T01:55:45;43.03;;;25.58;;
21424;SDS011;10873;51.132;16.848;2024-01-30T01:58:13;42.73;;;24.80;;
21424;SDS011;10873;51.132;16.848;2024-01-30T02:00:40;41.17;;;24.33;;
21424;SDS011;10873;51.132;16.848;2024-01-30T02:03:08;38.97;;;23.80;;
21424;SDS011;10873;51.132;16.848;2024-01-30T02:05:37;38.57;;;23.23;;
21424;SDS011;10873;51.132;16.848;2024-01-30T02:08:04;36.00;;;22.40;;
21424;SDS011;10873;51.132;16.848;2024-01-30T02:10:32;39.17;;;22.40;;
21424;SDS011;10873;51.132;16.848;2024-01-30T02:12:59;39.33;;;22.57;;
21424;SDS011;10873;51.132;16.848;2024-01-30T02:15:25;35.42;;;21.73;;
21424;SDS011;10873;51.132;16.848;2024-01-30T02:17:52;36.40;;;22.20;;
21424;SDS011;10873;51.132;16.848;2024-01-30T02:20:18;36.70;;;23.43;;
21424;SDS011;10873;51.132;16.848;2024-01-30T02:22:45;34.73;;;22.40;;
21424;SDS011;10873;51.132;16.848;2024-01-30T02:25:12;36.77;;;21.60;;
21424;SDS011;10873;51.132;16.848;2024-01-30T02:27:38;35.57;;;22.23;;
21424;SDS011;10873;51.132;16.848;2024-01-30T02:30:05;34.33;;;21.33;;
21424;SDS011;10873;51.132;16.848;2024-01-30T02:32:32;33.97;;;21.07;;
21424;SDS011;10873;51.132;16.848;2024-01-30T02:34:58;32.70;;;21.07;;
21424;SDS011;10873;51.132;16.848;2024-01-30T02:37:25;37.27;;;21.63;;
21424;SDS011;10873;51.132;16.848;2024-01-30T02:39:52;33.90;;;21.47;;
21424;SDS011;10873;51.132;16.848;2024-01-30T02:42:19;33.43;;;21.23;;
21424;SDS011;10873;51.132;16.848;2024-01-30T02:44:45;31.27;;;19.90;;
21424;SDS011;10873;51.132;16.848;2024-01-30T02:47:11;32.60;;;20.27;;
21424;SDS011;10873;51.132;16.848;2024-01-30T02:49:37;34.57;;;21.33;;
21424;SDS011;10873;51.132;16.848;2024-01-30T02:52:04;35.22;;;19.98;;
21424;SDS011;10873;51.132;16.848;2024-01-30T02:54:32;33.17;;;20.77;;
21424;SDS011;10873;51.132;16.848;2024-01-30T02:56:59;37.50;;;22.13;;
21424;SDS011;10873;51.132;16.848;2024-01-30T02:59:25;37.90;;;22.20;;
21424;SDS011;10873;51.132;16.848;2024-01-30T03:01:52;37.43;;;22.33;;
21424;SDS011;10873;51.132;16.848;2024-01-30T03:04:17;37.27;;;21.63;;
21424;SDS011;10873;51.132;16.848;2024-01-30T03:06:44;42.30;;;22.47;;
21424;SDS011;10873;51.132;16.848;2024-01-30T03:09:12;40.10;;;22.77;;
21424;SDS011;10873;51.132;16.848;2024-01-30T03:11:39;40.43;;;22.77;;
21424;SDS011;10873;51.132;16.848;2024-01-30T03:14:08;41.30;;;23.27;;
21424;SDS011;10873;51.132;16.848;2024-01-30T03:16:37;43.13;;;23.63;;
21424;SDS011;10873;51.132;16.848;2024-01-30T03:19:03;44.80;;;24.33;;
21424;SDS011;10873;51.132;16.848;2024-01-30T03:21:31;46.23;;;25.70;;
21424;SDS011;10873;51.132;16.848;2024-01-30T03:23:57;44.43;;;25.03;;
21424;SDS011;10873;51.132;16.848;2024-01-30T03:26:24;46.13;;;24.13;;
21424;SDS011;10873;51.132;16.848;2024-01-30T03:28:50;45.07;;;24.93;;
21424;SDS011;10873;51.132;16.848;2024-01-30T03:31:19;46.83;;;25.00;;
21424;SDS011;10873;51.132;16.848;2024-01-30T03:33:45;44.50;;;24.70;;
21424;SDS011;10873;51.132;16.848;2024-01-30T03:36:15;46.13;;;25.77;;
21424;SDS011;10873;51.132;16.848;2024-01-30T03:38:41;46.83;;;25.17;;
21424;SDS011;10873;51.132;16.848;2024-01-30T03:41:08;49.63;;;26.37;;
21424;SDS011;10873;51.132;16.848;2024-01-30T03:43:35;49.70;;;27.07;;
21424;SDS011;10873;51.132;16.848;2024-01-30T03:46:01;45.87;;;25.40;;
21424;SDS011;10873;51.132;16.848;2024-01-30T03:48:29;48.03;;;25.70;;
21424;SDS011;10873;51.132;16.848;2024-01-30T03:50:58;49.70;;;26.87;;
21424;SDS011;10873;51.132;16.848;2024-01-30T03:53:27;46.70;;;26.27;;
21424;SDS011;10873;51.132;16.848;2024-01-30T03:55:53;48.53;;;26.13;;
21424;SDS011;10873;51.132;16.848;2024-01-30T03:58:19;47.60;;;25.23;;
21424;SDS011;10873;51.132;16.848;2024-01-30T04:00:45;47.13;;;25.80;;
21424;SDS011;10873;51.132;16.848;2024-01-30T04:03:11;49.77;;;26.13;;
21424;SDS011;10873;51.132;16.848;2024-01-30T04:05:39;46.87;;;25.60;;
21424;SDS011;10873;51.132;16.848;2024-01-30T04:08:05;45.60;;;24.20;;
21424;SDS011;10873;51.132;16.848;2024-01-30T04:10:33;44.37;;;24.70;;
21424;SDS011;10873;51.132;16.848;2024-01-30T04:12:59;41.87;;;23.27;;
21424;SDS011;10873;51.132;16.848;2024-01-30T04:15:27;43.03;;;23.90;;
21424;SDS011;10873;51.132;16.848;2024-01-30T04:17:57;41.57;;;23.17;;
21424;SDS011;10873;51.132;16.848;2024-01-30T04:20:24;39.22;;;22.73;;
21424;SDS011;10873;51.132;16.848;2024-01-30T04:22:52;38.72;;;22.42;;
21424;SDS011;10873;51.132;16.848;2024-01-30T04:25:18;37.92;;;22.75;;
21424;SDS011;10873;51.132;16.848;2024-01-30T04:27:44;39.53;;;23.30;;
21424;SDS011;10873;51.132;16.848;2024-01-30T04:30:11;40.77;;;23.57;;
21424;SDS011;10873;51.132;16.848;2024-01-30T04:32:38;39.83;;;22.80;;
21424;SDS011;10873;51.132;16.848;2024-01-30T04:35:05;40.13;;;22.73;;
21424;SDS011;10873;51.132;16.848;2024-01-30T04:37:31;40.90;;;22.90;;
21424;SDS011;10873;51.132;16.848;2024-01-30T04:39:59;38.03;;;22.83;;
21424;SDS011;10873;51.132;16.848;2024-01-30T04:42:25;37.07;;;22.30;;
21424;SDS011;10873;51.132;16.848;2024-01-30T04:44:53;37.77;;;22.33;;
21424;SDS011;10873;51.132;16.848;2024-01-30T04:47:20;39.23;;;22.43;;
21424;SDS011;10873;51.132;16.848;2024-01-30T04:49:46;36.20;;;20.83;;
21424;SDS011;10873;51.132;16.848;2024-01-30T04:52:12;35.57;;;21.70;;
21424;SDS011;10873;51.132;16.848;2024-01-30T04:54:39;34.10;;;20.37;;
21424;SDS011;10873;51.132;16.848;2024-01-30T04:57:08;35.47;;;20.57;;
21424;SDS011;10873;51.132;16.848;2024-01-30T04:59:39;34.13;;;19.85;;
21424;SDS011;10873;51.132;16.848;2024-01-30T05:02:05;34.78;;;20.05;;
21424;SDS011;10873;51.132;16.848;2024-01-30T05:04:32;32.20;;;19.60;;
21424;SDS011;10873;51.132;16.848;2024-01-30T05:06:58;42.03;;;20.20;;
21424;SDS011;10873;51.132;16.848;2024-01-30T05:09:25;40.30;;;20.60;;
21424;SDS011;10873;51.132;16.848;2024-01-30T05:11:51;32.17;;;19.03;;
21424;SDS011;10873;51.132;16.848;2024-01-30T05:14:19;33.43;;;19.27;;
21424;SDS011;10873;51.132;16.848;2024-01-30T05:16:45;29.70;;;17.57;;
21424;SDS011;10873;51.132;16.848;2024-01-30T05:19:12;29.83;;;17.13;;
21424;SDS011;10873;51.132;16.848;2024-01-30T05:21:39;33.50;;;19.27;;
21424;SDS011;10873;51.132;16.848;2024-01-30T05:24:06;32.67;;;17.37;;
21424;SDS011;10873;51.132;16.848;2024-01-30T05:26:35;28.77;;;16.27;;
21424;SDS011;10873;51.132;16.848;2024-01-30T05:29:01;31.83;;;17.70;;
21424;SDS011;10873;51.132;16.848;2024-01-30T05:31:28;29.77;;;17.52;;
21424;SDS011;10873;51.132;16.848;2024-01-30T05:33:54;31.37;;;18.20;;
21424;SDS011;10873;51.132;16.848;2024-01-30T05:36:20;28.90;;;18.42;;
21424;SDS011;10873;51.132;16.848;2024-01-30T05:38:47;35.13;;;18.00;;
21424;SDS011;10873;51.132;16.848;2024-01-30T05:41:13;30.57;;;17.50;;
21424;SDS011;10873;51.132;16.848;2024-01-30T05:43:40;28.42;;;17.60;;
21424;SDS011;10873;51.132;16.848;2024-01-30T05:46:06;32.90;;;18.50;;
21424;SDS011;10873;51.132;16.848;2024-01-30T05:48:33;31.00;;;18.33;;
21424;SDS011;10873;51.132;16.848;2024-01-30T05:51:02;29.80;;;18.55;;
21424;SDS011;10873;51.132;16.848;2024-01-30T05:53:30;32.35;;;18.05;;
21424;SDS011;10873;51.132;16.848;2024-01-30T05:55:56;31.33;;;19.53;;
21424;SDS011;10873;51.132;16.848;2024-01-30T05:58:23;30.83;;;19.17;;
21424;SDS011;10873;51.132;16.848;2024-01-30T06:00:50;31.23;;;18.33;;
21424;SDS011;10873;51.132;16.848;2024-01-30T06:03:18;29.17;;;17.98;;
21424;SDS011;10873;51.132;16.848;2024-01-30T06:05:45;31.53;;;18.50;;
21424;SDS011;10873;51.132;16.848;2024-01-30T06:09:24;31.33;;;18.67;;
21424;SDS011;10873;51.132;16.848;2024-01-30T06:11:43;28.25;;;17.95;;
21424;SDS011;10873;51.132;16.848;2024-01-30T06:14:14;28.50;;;17.00;;
21424;SDS011;10873;51.132;16.848;2024-01-30T06:17:02;36.80;;;18.07;;
21424;SDS011;10873;51.132;16.848;2024-01-30T06:19:58;27.10;;;16.67;;
21424;SDS011;10873;51.132;16.848;2024-01-30T06:29:14;28.17;;;17.88;;
21424;SDS011;10873;51.132;16.848;2024-01-30T06:32:06;28.65;;;17.50;;
21424;SDS011;10873;51.132;16.848;2024-01-30T06:37:52;28.45;;;16.52;;
21424;SDS011;10873;51.132;16.848;2024-01-30T06:40:50;26.85;;;17.25;;
21424;SDS011;10873;51.132;16.848;2024-01-30T06:43:23;28.67;;;16.65;;
21424;SDS011;10873;51.132;16.848;2024-01-30T06:45:57;30.45;;;17.90;;
21424;SDS011;10873;51.132;16.848;2024-01-30T06:48:31;28.90;;;17.58;;
21424;SDS011;10873;51.132;16.848;2024-01-30T06:50:59;27.97;;;17.67;;
21424;SDS011;10873;51.132;16.848;2024-01-30T06:53:26;27.47;;;17.03;;
21424;SDS011;10873;51.132;16.848;2024-01-30T06:55:52;29.85;;;17.60;;
21424;SDS011;10873;51.132;16.848;2024-01-30T06:58:19;27.23;;;17.88;;
21424;SDS011;10873;51.132;16.848;2024-01-30T07:00:46;27.52;;;18.02;;
21424;SDS011;10873;51.132;16.848;2024-01-30T07:03:15;28.50;;;17.90;;
21424;SDS011;10873;51.132;16.848;2024-01-30T07:05:43;28.67;;;17.85;;
21424;SDS011;10873;51.132;16.848;2024-01-30T07:08:09;26.83;;;17.58;;
21424;SDS011;10873;51.132;16.848;2024-01-30T07:10:40;27.30;;;17.13;;
21424;SDS011;10873;51.132;16.848;2024-01-30T07:13:10;28.83;;;17.23;;
21424;SDS011;10873;51.132;16.848;2024-01-30T07:15:39;26.42;;;17.08;;
21424;SDS011;10873;51.132;16.848;2024-01-30T07:18:10;33.45;;;18.42;;
21424;SDS011;10873;51.132;16.848;2024-01-30T07:20:37;28.38;;;16.60;;
21424;SDS011;10873;51.132;16.848;2024-01-30T07:23:11;26.77;;;17.38;;
21424;SDS011;10873;51.132;16.848;2024-01-30T07:25:39;27.75;;;18.10;;
21424;SDS011;10873;51.132;16.848;2024-01-30T07:28:08;28.30;;;17.90;;
21424;SDS011;10873;51.132;16.848;2024-01-30T07:30:37;30.55;;;17.38;;
21424;SDS011;10873;51.132;16.848;2024-01-30T07:33:04;25.60;;;17.60;;
21424;SDS011;10873;51.132;16.848;2024-01-30T07:35:30;26.17;;;17.60;;
21424;SDS011;10873;51.132;16.848;2024-01-30T07:38:01;28.23;;;17.38;;
21424;SDS011;10873;51.132;16.848;2024-01-30T07:40:28;28.35;;;18.10;;
21424;SDS011;10873;51.132;16.848;2024-01-30T07:42:55;27.63;;;17.95;;
21424;SDS011;10873;51.132;16.848;2024-01-30T07:45:21;30.67;;;18.42;;
21424;SDS011;10873;51.132;16.848;2024-01-30T07:47:50;28.63;;;17.50;;
21424;SDS011;10873;51.132;16.848;2024-01-30T07:50:16;34.80;;;19.08;;
21424;SDS011;10873;51.132;16.848;2024-01-30T07:52:43;29.05;;;19.25;;
21424;SDS011;10873;51.132;16.848;2024-01-30T07:55:11;31.55;;;20.20;;
21424;SDS011;10873;51.132;16.848;2024-01-30T07:57:38;32.67;;;19.58;;
21424;SDS011;10873;51.132;16.848;2024-01-30T08:00:06;30.58;;;19.77;;
21424;SDS011;10873;51.132;16.848;2024-01-30T08:02:33;33.05;;;19.73;;
21424;SDS011;10873;51.132;16.848;2024-01-30T08:04:59;31.98;;;20.60;;
21424;SDS011;10873;51.132;16.848;2024-01-30T08:07:26;34.80;;;20.33;;
21424;SDS011;10873;51.132;16.848;2024-01-30T08:09:56;32.00;;;19.73;;
21424;SDS011;10873;51.132;16.848;2024-01-30T08:12:34;33.35;;;19.85;;
21424;SDS011;10873;51.132;16.848;2024-01-30T08:15:07;29.95;;;20.13;;
21424;SDS011;10873;51.132;16.848;2024-01-30T08:17:36;28.17;;;18.43;;
21424;SDS011;10873;51.132;16.848;2024-01-30T08:20:08;32.00;;;18.40;;
21424;SDS011;10873;51.132;16.848;2024-01-30T08:22:43;29.40;;;18.35;;
21424;SDS011;10873;51.132;16.848;2024-01-30T08:25:11;26.27;;;17.38;;
21424;SDS011;10873;51.132;16.848;2024-01-30T08:27:48;27.15;;;17.25;;
21424;SDS011;10873;51.132;16.848;2024-01-30T08:30:22;30.92;;;18.02;;
21424;SDS011;10873;51.132;16.848;2024-01-30T08:32:53;29.77;;;18.25;;
21424;SDS011;10873;51.132;16.848;2024-01-30T08:35:23;24.90;;;16.13;;
21424;SDS011;10873;51.132;16.848;2024-01-30T08:37:55;28.23;;;17.45;;
21424;SDS011;10873;51.132;16.848;2024-01-30T08:40:22;31.33;;;17.75;;
21424;SDS011;10873;51.132;16.848;2024-01-30T08:42:52;29.10;;;15.88;;
21424;SDS011;10873;51.132;16.848;2024-01-30T08:45:17;24.98;;;16.52;;
21424;SDS011;10873;51.132;16.848;2024-01-30T08:47:45;30.33;;;17.23;;
21424;SDS011;10873;51.132;16.848;2024-01-30T08:50:10;28.63;;;17.17;;
21424;SDS011;10873;51.132;16.848;2024-01-30T08:52:37;25.85;;;16.80;;
21424;SDS011;10873;51.132;16.848;2024-01-30T08:55:03;28.48;;;16.73;;
21424;SDS011;10873;51.132;16.848;2024-01-30T08:57:34;26.83;;;16.80;;
21424;SDS011;10873;51.132;16.848;2024-01-30T09:00:02;27.30;;;16.33;;
21424;SDS011;10873;51.132;16.848;2024-01-30T09:02:32;29.17;;;16.98;;
21424;SDS011;10873;51.132;16.848;2024-01-30T09:04:59;26.40;;;15.20;;
21424;SDS011;10873;51.132;16.848;2024-01-30T09:07:30;24.52;;;16.00;;
21424;SDS011;10873;51.132;16.848;2024-01-30T09:09:57;23.42;;;15.13;;
21424;SDS011;10873;51.132;16.848;2024-01-30T09:12:24;24.58;;;15.52;;
21424;SDS011;10873;51.132;16.848;2024-01-30T09:14:50;22.08;;;14.60;;
21424;SDS011;10873;51.132;16.848;2024-01-30T09:17:18;20.30;;;13.93;;
21424;SDS011;10873;51.132;16.848;2024-01-30T09:19:46;22.58;;;14.02;;
21424;SDS011;10873;51.132;16.848;2024-01-30T09:22:32;23.70;;;13.93;;
21424;SDS011;10873;51.132;16.848;2024-01-30T09:25:34;22.15;;;12.93;;
21424;SDS011;10873;51.132;16.848;2024-01-30T09:29:10;20.92;;;12.45;;
21424;SDS011;10873;51.132;16.848;2024-01-30T09:32:41;19.07;;;11.83;;
21424;SDS011;10873;51.132;16.848;2024-01-30T09:45:48;18.60;;;10.75;;
21424;SDS011;10873;51.132;16.848;2024-01-30T09:48:16;15.05;;;10.05;;
21424;SDS011;10873;51.132;16.848;2024-01-30T09:50:42;16.15;;;9.75;;
21424;SDS011;10873;51.132;16.848;2024-01-30T09:53:08;14.95;;;9.52;;
21424;SDS011;10873;51.132;16.848;2024-01-30T09:55:34;15.90;;;9.45;;
21424;SDS011;10873;51.132;16.848;2024-01-30T09:58:02;13.43;;;9.38;;
21424;SDS011;10873;51.132;16.848;2024-01-30T10:00:28;17.07;;;9.57;;
21424;SDS011;10873;51.132;16.848;2024-01-30T10:02:56;16.27;;;9.57;;
21424;SDS011;10873;51.132;16.848;2024-01-30T10:05:22;13.73;;;8.75;;
21424;SDS011;10873;51.132;16.848;2024-01-30T10:07:52;15.77;;;8.80;;
21424;SDS011;10873;51.132;16.848;2024-01-30T10:10:21;14.57;;;8.52;;
21424;SDS011;10873;51.132;16.848;2024-01-30T10:12:48;12.93;;;8.60;;
21424;SDS011;10873;51.132;16.848;2024-01-30T10:15:14;13.50;;;8.05;;
21424;SDS011;10873;51.132;16.848;2024-01-30T10:17:40;13.18;;;8.48;;
21424;SDS011;10873;51.132;16.848;2024-01-30T10:20:08;13.90;;;8.27;;
21424;SDS011;10873;51.132;16.848;2024-01-30T10:22:35;13.48;;;7.90;;
21424;SDS011;10873;51.132;16.848;2024-01-30T10:25:01;13.38;;;7.97;;
21424;SDS011;10873;51.132;16.848;2024-01-30T10:27:28;10.70;;;7.22;;
21424;SDS011;10873;51.132;16.848;2024-01-30T10:29:54;10.57;;;6.45;;
21424;SDS011;10873;51.132;16.848;2024-01-30T10:32:21;11.60;;;7.07;;
21424;SDS011;10873;51.132;16.848;2024-01-30T10:34:47;9.15;;;6.50;;
21424;SDS011;10873;51.132;16.848;2024-01-30T10:37:15;11.48;;;6.90;;
21424;SDS011;10873;51.132;16.848;2024-01-30T10:39:42;11.25;;;6.40;;
21424;SDS011;10873;51.132;16.848;2024-01-30T10:42:10;10.52;;;6.53;;
21424;SDS011;10873;51.132;16.848;2024-01-30T10:44:39;9.23;;;6.57;;
21424;SDS011;10873;51.132;16.848;2024-01-30T10:47:13;12.63;;;6.40;;
21424;SDS011;10873;51.132;16.848;2024-01-30T10:49:47;11.27;;;6.35;;
21424;SDS011;10873;51.132;16.848;2024-01-30T10:52:15;11.70;;;6.70;;
21424;SDS011;10873;51.132;16.848;2024-01-30T10:54:42;11.75;;;5.88;;
21424;SDS011;10873;51.132;16.848;2024-01-30T10:57:10;8.35;;;5.60;;
21424;SDS011;10873;51.132;16.848;2024-01-30T10:59:37;10.02;;;5.75;;
21424;SDS011;10873;51.132;16.848;2024-01-30T11:02:04;14.23;;;6.70;;
21424;SDS011;10873;51.132;16.848;2024-01-30T11:04:35;8.98;;;6.00;;
21424;SDS011;10873;51.132;16.848;2024-01-30T11:07:01;8.93;;;5.85;;
21424;SDS011;10873;51.132;16.848;2024-01-30T11:09:30;8.23;;;5.75;;
21424;SDS011;10873;51.132;16.848;2024-01-30T11:12:02;7.60;;;5.80;;
21424;SDS011;10873;51.132;16.848;2024-01-30T11:14:29;6.40;;;5.30;;
21424;SDS011;10873;51.132;16.848;2024-01-30T11:16:57;8.38;;;5.60;;
21424;SDS011;10873;51.132;16.848;2024-01-30T11:19:24;8.65;;;5.75;;
21424;SDS011;10873;51.132;16.848;2024-01-30T11:21:51;7.75;;;5.32;;
21424;SDS011;10873;51.132;16.848;2024-01-30T11:24:19;9.25;;;5.70;;
21424;SDS011;10873;51.132;16.848;2024-01-30T11:26:49;8.15;;;5.47;;
21424;SDS011;10873;51.132;16.848;2024-01-30T11:29:16;7.78;;;5.03;;
21424;SDS011;10873;51.132;16.848;2024-01-30T11:31:51;10.73;;;5.28;;
21424;SDS011;10873;51.132;16.848;2024-01-30T11:34:17;10.10;;;5.68;;
21424;SDS011;10873;51.132;16.848;2024-01-30T11:36:44;7.30;;;5.22;;
21424;SDS011;10873;51.132;16.848;2024-01-30T11:39:14;9.80;;;5.88;;
21424;SDS011;10873;51.132;16.848;2024-01-30T11:41:42;7.95;;;4.85;;
21424;SDS011;10873;51.132;16.848;2024-01-30T11:44:12;7.72;;;5.03;;
21424;SDS011;10873;51.132;16.848;2024-01-30T11:46:38;8.25;;;4.95;;
21424;SDS011;10873;51.132;16.848;2024-01-30T11:49:04;8.65;;;5.50;;
21424;SDS011;10873;51.132;16.848;2024-01-30T11:51:30;7.47;;;5.10;;
21424;SDS011;10873;51.132;16.848;2024-01-30T11:53:56;7.95;;;5.45;;
21424;SDS011;10873;51.132;16.848;2024-01-30T11:56:23;7.55;;;5.60;;
21424;SDS011;10873;51.132;16.848;2024-01-30T11:58:50;6.70;;;5.10;;
21424;SDS011;10873;51.132;16.848;2024-01-30T12:01:20;8.23;;;5.30;;
21424;SDS011;10873;51.132;16.848;2024-01-30T12:03:49;7.70;;;5.30;;
21424;SDS011;10873;51.132;16.848;2024-01-30T12:06:15;7.45;;;5.18;;
21424;SDS011;10873;51.132;16.848;2024-01-30T12:08:41;11.10;;;5.80;;
21424;SDS011;10873;51.132;16.848;2024-01-30T12:11:07;9.73;;;5.40;;
21424;SDS011;10873;51.132;16.848;2024-01-30T12:13:33;7.80;;;5.30;;
21424;SDS011;10873;51.132;16.848;2024-01-30T12:16:00;8.77;;;5.70;;
21424;SDS011;10873;51.132;16.848;2024-01-30T12:18:27;8.73;;;5.90;;
21424;SDS011;10873;51.132;16.848;2024-01-30T12:20:56;8.65;;;5.68;;
21424;SDS011;10873;51.132;16.848;2024-01-30T12:23:24;8.63;;;5.80;;
21424;SDS011;10873;51.132;16.848;2024-01-30T12:25:51;8.90;;;6.07;;
21424;SDS011;10873;51.132;16.848;2024-01-30T12:28:17;11.30;;;6.55;;
21424;SDS011;10873;51.132;16.848;2024-01-30T12:30:43;8.27;;;6.20;;
21424;SDS011;10873;51.132;16.848;2024-01-30T12:33:09;8.55;;;5.90;;
21424;SDS011;10873;51.132;16.848;2024-01-30T12:35:46;10.45;;;6.65;;
21424;SDS011;10873;51.132;16.848;2024-01-30T12:38:15;10.43;;;6.22;;
21424;SDS011;10873;51.132;16.848;2024-01-30T12:40:41;8.63;;;5.82;;
21424;SDS011;10873;51.132;16.848;2024-01-30T12:43:07;10.55;;;5.60;;
21424;SDS011;10873;51.132;16.848;2024-01-30T12:45:33;10.00;;;6.20;;
21424;SDS011;10873;51.132;16.848;2024-01-30T12:48:01;7.95;;;5.85;;
21424;SDS011;10873;51.132;16.848;2024-01-30T12:50:27;10.63;;;5.82;;
21424;SDS011;10873;51.132;16.848;2024-01-30T12:52:54;8.70;;;5.45;;
21424;SDS011;10873;51.132;16.848;2024-01-30T12:55:21;8.80;;;5.55;;
21424;SDS011;10873;51.132;16.848;2024-01-30T12:57:47;9.02;;;5.88;;
21424;SDS011;10873;51.132;16.848;2024-01-30T13:00:13;6.63;;;4.88;;
21424;SDS011;10873;51.132;16.848;2024-01-30T13:02:39;7.80;;;5.32;;
21424;SDS011;10873;51.132;16.848;2024-01-30T13:05:05;8.50;;;5.55;;
21424;SDS011;10873;51.132;16.848;2024-01-30T13:07:33;8.13;;;5.38;;
21424;SDS011;10873;51.132;16.848;2024-01-30T13:10:01;11.70;;;6.20;;
21424;SDS011;10873;51.132;16.848;2024-01-30T13:12:28;10.63;;;5.75;;
21424;SDS011;10873;51.132;16.848;2024-01-30T13:14:55;8.27;;;5.50;;
21424;SDS011;10873;51.132;16.848;2024-01-30T13:17:21;7.72;;;5.57;;
21424;SDS011;10873;51.132;16.848;2024-01-30T13:19:47;7.13;;;5.13;;
21424;SDS011;10873;51.132;16.848;2024-01-30T13:22:14;8.63;;;5.95;;
21424;SDS011;10873;51.132;16.848;2024-01-30T13:24:41;11.73;;;5.85;;
21424;SDS011;10873;51.132;16.848;2024-01-30T13:27:08;9.02;;;5.68;;
21424;SDS011;10873;51.132;16.848;2024-01-30T13:29:34;8.88;;;5.68;;
21424;SDS011;10873;51.132;16.848;2024-01-30T13:32:00;8.95;;;5.07;;
21424;SDS011;10873;51.132;16.848;2024-01-30T13:34:26;7.32;;;5.20;;
21424;SDS011;10873;51.132;16.848;2024-01-30T13:36:52;7.93;;;5.30;;
21424;SDS011;10873;51.132;16.848;2024-01-30T13:39:20;7.00;;;5.13;;
21424;SDS011;10873;51.132;16.848;2024-01-30T13:41:45;10.02;;;5.90;;
21424;SDS011;10873;51.132;16.848;2024-01-30T13:44:15;7.88;;;5.57;;
21424;SDS011;10873;51.132;16.848;2024-01-30T13:46:42;8.95;;;5.97;;
21424;SDS011;10873;51.132;16.848;2024-01-30T13:49:08;7.90;;;6.07;;
21424;SDS011;10873;51.132;16.848;2024-01-30T13:51:34;12.13;;;6.70;;
21424;SDS011;10873;51.132;16.848;2024-01-30T13:54:01;9.13;;;6.20;;
21424;SDS011;10873;51.132;16.848;2024-01-30T13:56:27;8.55;;;5.80;;
21424;SDS011;10873;51.132;16.848;2024-01-30T13:58:55;10.07;;;5.88;;
21424;SDS011;10873;51.132;16.848;2024-01-30T14:01:23;7.82;;;5.90;;
21424;SDS011;10873;51.132;16.848;2024-01-30T14:03:49;9.27;;;6.05;;
21424;SDS011;10873;51.132;16.848;2024-01-30T14:06:15;8.45;;;5.93;;
21424;SDS011;10873;51.132;16.848;2024-01-30T14:08:41;8.18;;;5.80;;
21424;SDS011;10873;51.132;16.848;2024-01-30T14:11:07;9.25;;;6.22;;
21424;SDS011;10873;51.132;16.848;2024-01-30T14:13:33;10.32;;;5.78;;
21424;SDS011;10873;51.132;16.848;2024-01-30T14:16:00;9.55;;;6.20;;
21424;SDS011;10873;51.132;16.848;2024-01-30T14:18:27;13.15;;;6.05;;
21424;SDS011;10873;51.132;16.848;2024-01-30T14:20:53;8.63;;;5.82;;
21424;SDS011;10873;51.132;16.848;2024-01-30T14:23:19;10.45;;;6.10;;
21424;SDS011;10873;51.132;16.848;2024-01-30T14:25:46;11.20;;;5.88;;
21424;SDS011;10873;51.132;16.848;2024-01-30T14:28:12;8.93;;;5.68;;
21424;SDS011;10873;51.132;16.848;2024-01-30T14:30:38;11.63;;;6.13;;
21424;SDS011;10873;51.132;16.848;2024-01-30T14:33:04;7.13;;;5.22;;
21424;SDS011;10873;51.132;16.848;2024-01-30T14:35:33;9.23;;;6.30;;
21424;SDS011;10873;51.132;16.848;2024-01-30T14:37:59;10.70;;;5.80;;
21424;SDS011;10873;51.132;16.848;2024-01-30T14:40:26;10.77;;;6.03;;
21424;SDS011;10873;51.132;16.848;2024-01-30T14:42:52;9.10;;;5.70;;